createdAt,value
2022-10-08T00:01:08.782Z,62.70
2022-10-08T00:03:37.522Z,62.50
2022-10-08T00:06:09.283Z,62.40
2022-10-08T00:08:37.404Z,62.50
2022-10-08T00:11:08.981Z,62.40
2022-10-08T00:13:42.476Z,63.60
2022-10-08T00:16:09.956Z,63.70
2022-10-08T00:18:36.773Z,63.90
2022-10-08T00:21:14.318Z,63.70
2022-10-08T00:23:41.490Z,63.40
2022-10-08T00:26:08.454Z,63.50
2022-10-08T00:28:35.569Z,63.40
2022-10-08T00:31:07.459Z,63.30
2022-10-08T00:33:36.338Z,63.30
2022-10-08T00:36:08.201Z,63.40
2022-10-08T00:38:35.115Z,63.40
2022-10-08T00:41:01.863Z,63.40
2022-10-08T00:43:54.054Z,63.50
2022-10-08T00:46:21.186Z,63.70
2022-10-08T00:48:48.371Z,63.70
2022-10-08T00:51:15.194Z,63.90
2022-10-08T00:53:42.455Z,63.90
2022-10-08T00:56:09.161Z,63.90
2022-10-08T00:58:36.599Z,63.90
2022-10-08T01:01:03.395Z,64.00
2022-10-08T01:03:30.153Z,64.70
2022-10-08T01:06:33.089Z,63.70
2022-10-08T01:09:16.497Z,63.70
2022-10-08T01:12:03.562Z,63.60
2022-10-08T01:14:52.912Z,63.60
2022-10-08T01:17:58.563Z,63.50
2022-10-08T01:21:19.104Z,63.70
2022-10-08T01:24:06.964Z,63.70
2022-10-08T01:26:53.993Z,63.60
2022-10-08T01:29:30.351Z,63.60
2022-10-08T01:32:03.338Z,64.10
2022-10-08T01:34:37.076Z,63.90
2022-10-08T01:37:03.960Z,64.00
2022-10-08T01:39:32.091Z,63.90
2022-10-08T01:41:58.809Z,64.00
2022-10-08T01:44:32.766Z,64.00
2022-10-08T01:47:00.598Z,64.10
2022-10-08T01:49:29.810Z,64.10
2022-10-08T01:52:04.264Z,64.30
2022-10-08T01:54:31.853Z,64.20
2022-10-08T01:56:59.259Z,64.30
2022-10-08T01:59:39.979Z,64.40
2022-10-08T02:02:15.808Z,64.50
2022-10-08T02:04:42.606Z,64.50
2022-10-08T02:07:10.173Z,64.70
2022-10-08T02:09:39.772Z,64.80
2022-10-08T02:12:06.589Z,65.00
2022-10-08T02:14:34.127Z,65.10
2022-10-08T02:17:25.032Z,65.10
2022-10-08T02:19:55.898Z,65.20
2022-10-08T02:22:27.208Z,65.20
2022-10-08T02:24:58.942Z,65.20
2022-10-08T02:27:29.476Z,65.30
2022-10-08T02:30:14.321Z,65.40
2022-10-08T02:32:55.089Z,65.50
2022-10-08T02:35:33.594Z,65.50
2022-10-08T02:38:22.280Z,65.60
2022-10-08T02:40:50.755Z,65.70
2022-10-08T02:43:22.673Z,65.70
2022-10-08T02:46:00.246Z,65.40
2022-10-08T02:48:31.930Z,65.50
2022-10-08T02:51:06.568Z,65.70
2022-10-08T02:53:35.215Z,65.60
2022-10-08T02:56:24.273Z,65.70
2022-10-08T02:58:51.037Z,65.70
2022-10-08T03:01:36.579Z,65.80
2022-10-08T03:04:27.910Z,65.90
2022-10-08T03:06:54.710Z,65.90
2022-10-08T03:09:21.842Z,65.90
2022-10-08T03:11:48.681Z,65.90
2022-10-08T03:14:16.627Z,65.80
2022-10-08T03:16:44.649Z,65.70
2022-10-08T03:19:12.452Z,65.90
2022-10-08T03:21:40.105Z,65.80
2022-10-08T03:24:07.783Z,65.90
2022-10-08T03:26:34.495Z,66.00
2022-10-08T03:29:01.287Z,66.20
2022-10-08T03:31:28.027Z,66.30
2022-10-08T03:33:55.001Z,66.50
2022-10-08T03:36:22.480Z,67.60
2022-10-08T03:38:49.473Z,66.80
2022-10-08T03:41:16.520Z,67.80
2022-10-08T03:43:43.357Z,67.10
2022-10-08T03:46:10.756Z,67.10
2022-10-08T03:48:37.562Z,67.10
2022-10-08T03:51:10.168Z,67.20
2022-10-08T03:53:37.561Z,67.40
2022-10-08T03:56:11.934Z,67.50
2022-10-08T03:58:38.664Z,67.50
2022-10-08T04:01:07.688Z,67.40
2022-10-08T04:03:34.590Z,67.40
2022-10-08T04:06:01.367Z,67.30
2022-10-08T04:08:28.149Z,67.40
2022-10-08T04:10:54.898Z,67.50
2022-10-08T04:13:21.872Z,67.60
2022-10-08T04:15:50.648Z,67.70
2022-10-08T04:18:17.679Z,67.90
2022-10-08T04:20:44.439Z,68.00
2022-10-08T04:23:11.205Z,68.10
2022-10-08T04:25:37.992Z,68.20
2022-10-08T04:28:05.029Z,68.20
2022-10-08T04:30:32.066Z,68.30
2022-10-08T04:32:58.804Z,68.40
2022-10-08T04:35:25.606Z,68.40
2022-10-08T04:37:52.475Z,68.50
2022-10-08T04:40:19.174Z,68.70
2022-10-08T04:42:50.987Z,68.90
2022-10-08T04:45:17.736Z,69.10
2022-10-08T04:47:44.565Z,69.10
2022-10-08T04:50:11.304Z,69.10
2022-10-08T04:52:38.043Z,69.00
2022-10-08T04:55:05.065Z,69.90
2022-10-08T04:57:31.996Z,69.10
2022-10-08T05:00:17.012Z,69.20
2022-10-08T05:02:45.696Z,69.20
2022-10-08T05:05:12.687Z,69.20
2022-10-08T05:07:39.476Z,69.20
2022-10-08T05:10:06.608Z,69.10
2022-10-08T05:12:33.292Z,69.30
2022-10-08T05:15:00.002Z,69.40
2022-10-08T05:17:26.703Z,69.50
2022-10-08T05:19:53.408Z,69.50
2022-10-08T05:22:20.116Z,69.60
2022-10-08T05:24:46.826Z,69.60
2022-10-08T05:27:13.493Z,69.70
2022-10-08T05:29:40.201Z,69.70
2022-10-08T05:32:07.038Z,69.70
2022-10-08T05:34:33.841Z,69.70
2022-10-08T05:37:00.583Z,69.70
2022-10-08T05:39:27.610Z,69.80
2022-10-08T05:41:54.353Z,69.80
2022-10-08T05:44:21.164Z,69.60
2022-10-08T05:46:48.394Z,69.70
2022-10-08T05:49:22.439Z,69.80
2022-10-08T05:51:49.588Z,69.80
2022-10-08T05:54:17.481Z,69.90
2022-10-08T05:56:44.213Z,70.00
2022-10-08T05:59:19.398Z,70.00
2022-10-08T06:01:46.103Z,70.10
2022-10-08T06:04:12.950Z,70.30
2022-10-08T06:06:40.561Z,70.30
2022-10-08T06:09:07.504Z,70.40
2022-10-08T06:11:35.221Z,70.40
2022-10-08T06:14:02.188Z,71.30
2022-10-08T06:16:29.253Z,70.50
2022-10-08T06:18:56.050Z,70.60
2022-10-08T06:21:25.789Z,70.80
2022-10-08T06:23:53.889Z,71.00
2022-10-08T06:26:22.081Z,71.20
2022-10-08T06:28:49.012Z,71.20
2022-10-08T06:31:16.043Z,71.40
2022-10-08T06:33:42.852Z,71.40
2022-10-08T06:38:58.216Z,71.60
2022-10-08T06:41:25.208Z,71.50
2022-10-08T06:43:51.909Z,71.70
2022-10-08T06:46:19.014Z,71.80
2022-10-08T06:48:46.098Z,71.80
2022-10-08T06:51:15.053Z,72.00
2022-10-08T06:53:42.085Z,70.80
2022-10-08T06:56:18.086Z,70.90
2022-10-08T06:58:45.078Z,71.20
2022-10-08T07:01:15.987Z,71.20
2022-10-08T07:03:42.811Z,71.20
2022-10-08T07:06:10.864Z,71.30
2022-10-08T07:08:37.760Z,72.10
2022-10-08T07:11:09.116Z,71.30
2022-10-08T07:13:35.916Z,71.30
2022-10-08T07:16:06.270Z,71.20
2022-10-08T07:18:33.423Z,71.20
2022-10-08T07:21:00.227Z,71.20
2022-10-08T07:23:27.108Z,71.20
2022-10-08T07:26:01.612Z,71.10
2022-10-08T07:28:30.158Z,71.10
2022-10-08T07:30:56.948Z,71.30
2022-10-08T07:33:23.692Z,71.30
2022-10-08T07:35:50.428Z,71.40
2022-10-08T07:38:19.913Z,71.00
2022-10-08T07:40:51.016Z,71.00
2022-10-08T07:43:19.744Z,71.10
2022-10-08T07:45:46.795Z,71.10
2022-10-08T07:48:13.619Z,71.70
2022-10-08T07:50:40.472Z,71.40
2022-10-08T07:53:07.372Z,71.20
2022-10-08T07:55:34.119Z,71.50
2022-10-08T07:58:00.821Z,71.60
2022-10-08T08:00:27.533Z,71.60
2022-10-08T08:02:54.316Z,71.50
2022-10-08T08:05:21.013Z,71.80
2022-10-08T08:07:53.024Z,71.60
2022-10-08T08:10:20.005Z,71.60
2022-10-08T08:12:46.980Z,71.50
2022-10-08T08:15:13.826Z,71.80
2022-10-08T08:17:40.829Z,72.00
2022-10-08T08:20:08.300Z,71.80
2022-10-08T08:22:34.989Z,71.90
2022-10-08T08:25:01.713Z,72.10
2022-10-08T08:27:28.509Z,73.10
2022-10-08T08:29:55.191Z,72.30
2022-10-08T08:32:24.941Z,72.20
2022-10-08T08:34:55.012Z,72.10
2022-10-08T08:37:21.843Z,72.10
2022-10-08T08:39:48.502Z,72.20
2022-10-08T08:42:39.311Z,72.40
2022-10-08T08:45:44.786Z,72.50
2022-10-08T08:48:33.092Z,72.30
2022-10-08T08:50:59.843Z,72.50
2022-10-08T08:53:26.571Z,72.50
2022-10-08T08:55:55.421Z,72.80
2022-10-08T08:58:51.639Z,72.80
2022-10-08T09:01:36.545Z,72.90
2022-10-08T09:04:31.397Z,73.00
2022-10-08T09:06:58.164Z,73.20
2022-10-08T09:09:39.263Z,72.80
2022-10-08T09:12:20.948Z,73.00
2022-10-08T09:14:55.860Z,73.00
2022-10-08T09:17:31.514Z,73.10
2022-10-08T09:19:58.351Z,73.10
2022-10-08T09:22:28.564Z,73.40
2022-10-08T09:25:19.975Z,73.30
2022-10-08T09:27:52.427Z,73.20
2022-10-08T09:30:29.334Z,73.10
2022-10-08T09:32:58.148Z,73.20
2022-10-08T09:35:24.916Z,73.10
2022-10-08T09:37:51.705Z,74.00
2022-10-08T09:40:23.322Z,73.20
2022-10-08T09:43:10.388Z,73.30
2022-10-08T09:45:47.646Z,73.40
2022-10-08T09:48:20.368Z,73.30
2022-10-08T09:50:48.984Z,73.30
2022-10-08T09:53:15.735Z,73.20
2022-10-08T09:55:47.385Z,73.20
2022-10-08T09:58:16.223Z,73.10
2022-10-08T10:00:42.896Z,73.00
2022-10-08T10:03:17.482Z,73.10
2022-10-08T10:05:44.175Z,72.80
2022-10-08T10:08:46.707Z,73.00
2022-10-08T10:11:17.474Z,73.00
2022-10-08T10:13:44.205Z,73.10
2022-10-08T10:16:38.865Z,72.80
2022-10-08T10:19:08.815Z,73.00
2022-10-08T10:21:42.373Z,72.90
2022-10-08T10:24:18.392Z,73.80
2022-10-08T10:26:45.223Z,72.90
2022-10-08T10:29:20.554Z,72.80
2022-10-08T10:32:16.923Z,72.90
2022-10-08T10:34:51.194Z,72.70
2022-10-08T10:37:21.036Z,72.80
2022-10-08T10:40:17.209Z,72.70
2022-10-08T10:42:47.493Z,72.50
2022-10-08T10:45:14.354Z,71.70
2022-10-08T10:47:41.063Z,71.70
2022-10-08T10:50:13.248Z,71.80
2022-10-08T10:52:52.482Z,71.80
2022-10-08T10:55:31.952Z,71.80
2022-10-08T10:58:17.507Z,71.70
2022-10-08T11:01:02.998Z,71.60
2022-10-08T11:03:29.676Z,71.60
2022-10-08T11:06:22.339Z,71.00
2022-10-08T11:08:57.149Z,71.10
2022-10-08T11:11:44.348Z,71.00
2022-10-08T11:14:38.161Z,70.20
2022-10-08T11:17:37.007Z,70.20
2022-10-08T11:20:39.853Z,70.40
2022-10-08T11:23:18.697Z,70.60
2022-10-08T11:26:31.793Z,70.50
2022-10-08T11:29:01.204Z,70.20
2022-10-08T11:31:48.540Z,70.10
2022-10-08T11:34:29.451Z,71.00
2022-10-08T11:37:10.472Z,70.10
2022-10-08T11:39:43.179Z,70.20
2022-10-08T11:42:25.284Z,70.00
2022-10-08T11:44:52.037Z,70.10
2022-10-08T11:47:47.501Z,70.00
2022-10-08T11:50:28.010Z,70.00
2022-10-08T11:53:19.279Z,70.00
2022-10-08T11:55:55.782Z,69.80
2022-10-08T11:58:30.398Z,69.80
2022-10-08T12:01:06.882Z,69.80
2022-10-08T12:03:40.250Z,69.80
2022-10-08T12:06:26.655Z,69.70
2022-10-08T12:08:54.507Z,69.50
2022-10-08T12:11:32.973Z,69.60
2022-10-08T12:14:11.829Z,69.40
2022-10-08T12:16:47.481Z,69.20
2022-10-08T12:19:32.893Z,69.40
2022-10-08T12:22:28.529Z,69.10
2022-10-08T12:24:56.632Z,69.00
2022-10-08T12:27:27.739Z,68.60
2022-10-08T12:30:09.913Z,68.70
2022-10-08T12:32:39.655Z,69.20
2022-10-08T12:35:06.743Z,68.30
2022-10-08T12:37:36.260Z,68.00
2022-10-08T12:40:09.552Z,68.10
2022-10-08T12:42:37.392Z,68.20
2022-10-08T12:45:11.253Z,68.20
2022-10-08T12:47:49.016Z,68.20
2022-10-08T12:50:42.325Z,68.30
2022-10-08T12:53:12.401Z,67.80
2022-10-08T12:55:45.377Z,66.90
2022-10-08T12:58:16.334Z,66.80
2022-10-08T13:00:43.201Z,66.00
2022-10-08T13:03:14.947Z,65.00
2022-10-08T13:05:43.433Z,64.20
2022-10-08T13:08:35.502Z,64.00
2022-10-08T13:11:08.398Z,63.80
2022-10-08T13:13:41.232Z,63.80
2022-10-08T13:16:16.491Z,63.20
2022-10-08T13:18:48.195Z,62.80
2022-10-08T13:21:33.151Z,62.70
2022-10-08T13:24:21.042Z,63.30
2022-10-08T13:26:52.249Z,63.60
2022-10-08T13:29:22.156Z,63.70
2022-10-08T13:32:14.209Z,63.70
2022-10-08T13:34:41.031Z,64.00
2022-10-08T13:37:21.072Z,64.30
2022-10-08T13:39:52.378Z,64.30
2022-10-08T13:42:20.176Z,63.60
2022-10-08T13:44:46.927Z,63.70
2022-10-08T13:47:17.993Z,63.40
2022-10-08T13:49:44.883Z,63.00
2022-10-08T13:52:22.204Z,62.80
2022-10-08T13:54:49.710Z,62.20
2022-10-08T13:57:16.526Z,61.90
2022-10-08T13:59:43.266Z,60.40
2022-10-08T14:02:13.790Z,60.60
2022-10-08T14:04:40.716Z,60.40
2022-10-08T14:07:29.700Z,59.80
2022-10-08T14:09:57.065Z,58.70
2022-10-08T14:12:26.428Z,57.40
2022-10-08T14:14:53.639Z,58.10
2022-10-08T14:17:20.830Z,57.90
2022-10-08T14:19:47.871Z,57.90
2022-10-08T14:22:14.790Z,58.30
2022-10-08T14:24:41.572Z,57.80
2022-10-08T14:27:08.615Z,58.00
2022-10-08T14:29:35.460Z,57.70
2022-10-08T14:32:05.621Z,57.00
2022-10-08T14:34:32.321Z,57.60
2022-10-08T14:36:59.258Z,57.60
2022-10-08T14:39:26.669Z,57.60
2022-10-08T14:41:53.462Z,57.60
2022-10-08T14:44:22.480Z,57.50
2022-10-08T14:46:51.839Z,57.20
2022-10-08T14:49:18.976Z,57.50
2022-10-08T14:51:46.262Z,57.90
2022-10-08T14:54:13.750Z,57.90
2022-10-08T14:56:42.748Z,57.90
2022-10-08T14:59:10.398Z,57.60
2022-10-08T15:01:37.179Z,58.00
2022-10-08T15:04:04.747Z,58.10
2022-10-08T15:06:31.713Z,57.80
2022-10-08T15:08:58.647Z,58.10
2022-10-08T15:11:25.345Z,58.20
2022-10-08T15:13:55.452Z,58.20
2022-10-08T15:16:22.487Z,58.40
2022-10-08T15:18:49.288Z,58.10
2022-10-08T15:21:16.011Z,57.90
2022-10-08T15:23:42.805Z,57.60
2022-10-08T15:26:14.638Z,57.50
2022-10-08T15:28:41.751Z,57.70
2022-10-08T15:31:11.415Z,58.00
2022-10-08T15:33:42.117Z,58.30
2022-10-08T15:36:33.723Z,58.50
2022-10-08T15:39:01.002Z,58.80
2022-10-08T15:41:28.796Z,58.80
2022-10-08T15:43:55.613Z,58.80
2022-10-08T15:46:22.906Z,58.80
2022-10-08T15:48:56.468Z,59.00
2022-10-08T15:51:23.817Z,59.20
2022-10-08T15:53:50.613Z,59.40
2022-10-08T15:56:17.382Z,59.50
2022-10-08T15:58:51.871Z,59.60
2022-10-08T16:01:20.739Z,59.70
2022-10-08T16:03:48.194Z,59.90
2022-10-08T16:06:22.576Z,60.00
2022-10-08T16:08:49.384Z,60.20
2022-10-08T16:11:17.008Z,60.30
2022-10-08T16:13:47.861Z,60.40
2022-10-08T16:16:17.026Z,60.50
2022-10-08T16:18:44.655Z,60.70
2022-10-08T16:21:12.171Z,60.70
2022-10-08T16:23:39.044Z,60.70
2022-10-08T16:26:07.804Z,61.00
2022-10-08T16:28:36.063Z,61.10
2022-10-08T16:31:03.314Z,61.20
2022-10-08T16:33:29.997Z,61.30
2022-10-08T16:35:56.733Z,61.60
2022-10-08T16:38:23.511Z,61.50
2022-10-08T16:40:51.262Z,61.70
2022-10-08T16:43:18.163Z,62.70
2022-10-08T16:45:44.867Z,62.00
2022-10-08T16:48:11.685Z,63.00
2022-10-08T16:50:39.220Z,62.20
2022-10-08T16:53:08.682Z,62.20
2022-10-08T16:55:38.645Z,62.30
2022-10-08T16:58:05.596Z,62.40
2022-10-08T17:00:35.098Z,62.50
2022-10-08T17:03:01.894Z,62.50
2022-10-08T17:05:28.682Z,62.60
2022-10-08T17:07:55.460Z,63.00
2022-10-08T17:10:22.155Z,63.00
2022-10-08T17:12:49.197Z,63.00
2022-10-08T17:15:16.370Z,63.10
2022-10-08T17:17:43.079Z,63.10
2022-10-08T17:20:11.198Z,63.20
2022-10-08T17:22:37.905Z,63.10
2022-10-08T17:25:04.981Z,64.10
2022-10-08T17:27:31.658Z,63.30
2022-10-08T17:29:58.478Z,64.20
2022-10-08T17:32:25.270Z,63.50
2022-10-08T17:34:51.922Z,63.80
2022-10-08T17:37:18.633Z,64.10
2022-10-08T17:39:45.449Z,64.10
2022-10-08T17:42:12.153Z,64.00
2022-10-08T17:44:38.919Z,64.20
2022-10-08T17:47:06.325Z,64.20
2022-10-08T17:49:33.023Z,64.30
2022-10-08T17:51:59.841Z,64.20
2022-10-08T17:54:26.560Z,65.30
2022-10-08T17:56:54.118Z,64.50
2022-10-08T17:59:22.851Z,64.50
2022-10-08T18:01:49.603Z,64.40
2022-10-08T18:04:17.462Z,64.60
2022-10-08T18:06:46.363Z,64.60
2022-10-08T18:09:14.921Z,64.70
2022-10-08T18:11:45.375Z,64.80
2022-10-08T18:14:12.220Z,64.70
2022-10-08T18:16:38.964Z,64.80
2022-10-08T18:19:08.805Z,65.00
2022-10-08T18:21:35.830Z,65.20
2022-10-08T18:24:02.560Z,65.40
2022-10-08T18:26:34.668Z,66.30
2022-10-08T18:29:03.854Z,65.60
2022-10-08T18:31:31.943Z,65.80
2022-10-08T18:34:00.701Z,65.70
2022-10-08T18:36:31.767Z,65.90
2022-10-08T18:39:04.178Z,66.20
2022-10-08T18:41:32.559Z,66.30
2022-10-08T18:44:00.639Z,66.40
2022-10-08T18:46:27.670Z,66.40
2022-10-08T18:48:54.773Z,66.40
2022-10-08T18:51:23.193Z,66.30
2022-10-08T18:53:50.473Z,66.30
2022-10-08T18:56:19.218Z,66.20
2022-10-08T18:58:46.006Z,66.20
2022-10-08T19:01:20.475Z,66.20
2022-10-08T19:03:51.720Z,66.20
2022-10-08T19:06:19.908Z,66.40
2022-10-08T19:08:47.032Z,66.30
2022-10-08T19:11:18.592Z,66.20
2022-10-08T19:13:45.460Z,66.30
2022-10-08T19:16:13.877Z,66.00
2022-10-08T19:18:45.105Z,65.60
2022-10-08T19:21:12.569Z,65.30
2022-10-08T19:23:39.481Z,65.00
2022-10-08T19:26:06.540Z,65.20
2022-10-08T19:28:33.962Z,65.40
2022-10-08T19:31:00.803Z,65.80
2022-10-08T19:33:27.519Z,66.00
2022-10-08T19:36:00.413Z,66.00
2022-10-08T19:38:27.115Z,65.80
2022-10-08T19:40:53.789Z,66.20
2022-10-08T19:43:20.616Z,66.80
2022-10-08T19:45:47.313Z,66.80
2022-10-08T19:48:14.042Z,66.80
2022-10-08T19:50:40.742Z,67.00
2022-10-08T19:53:07.586Z,67.20
2022-10-08T19:55:37.965Z,67.10
2022-10-08T19:58:04.922Z,67.30
2022-10-08T20:00:31.669Z,68.30
2022-10-08T20:02:58.434Z,67.80
2022-10-08T20:05:25.197Z,67.90
2022-10-08T20:07:51.876Z,68.00
2022-10-08T20:10:18.618Z,68.30
2022-10-08T20:12:45.603Z,68.30
2022-10-08T20:15:12.716Z,67.90
2022-10-08T20:17:39.400Z,68.00
2022-10-08T20:20:28.306Z,68.30
2022-10-08T20:22:53.420Z,68.90
2022-10-08T20:25:21.240Z,69.40
2022-10-08T20:27:48.036Z,70.60
2022-10-08T20:30:15.196Z,70.10
2022-10-08T20:32:41.938Z,70.00
2022-10-08T20:35:08.924Z,70.10
2022-10-08T20:37:35.770Z,70.20
2022-10-08T20:40:02.827Z,70.30
2022-10-08T20:42:29.636Z,70.10
2022-10-08T20:44:56.338Z,70.10
2022-10-08T20:47:23.087Z,71.00
2022-10-08T20:49:49.850Z,70.20
2022-10-08T20:52:16.533Z,70.50
2022-10-08T20:54:43.607Z,70.70
2022-10-08T20:57:10.434Z,70.60
2022-10-08T20:59:37.097Z,72.10
2022-10-08T21:02:05.598Z,71.30
2022-10-08T21:04:32.467Z,71.50
2022-10-08T21:07:00.468Z,71.40
2022-10-08T21:09:27.213Z,71.50
2022-10-08T21:11:55.158Z,71.70
2022-10-08T21:14:22.695Z,71.70
2022-10-08T21:16:49.477Z,71.80
2022-10-08T21:19:18.940Z,71.80
2022-10-08T21:21:45.698Z,71.90
2022-10-08T21:24:12.436Z,72.10
2022-10-08T21:26:40.264Z,72.30
2022-10-08T21:29:11.800Z,72.50
2022-10-08T21:31:39.201Z,72.50
2022-10-08T21:34:06.543Z,72.60
2022-10-08T21:36:35.591Z,72.60
2022-10-08T21:39:03.318Z,72.70
2022-10-08T21:41:31.952Z,72.90
2022-10-08T21:44:02.481Z,72.90
2022-10-08T21:46:31.402Z,73.10
2022-10-08T21:48:59.535Z,73.10
2022-10-08T21:51:26.554Z,73.10
2022-10-08T21:53:55.250Z,73.00
2022-10-08T21:56:23.472Z,73.20
2022-10-08T21:58:52.132Z,73.40
2022-10-08T22:01:35.967Z,73.50
2022-10-08T22:04:05.001Z,73.70
2022-10-08T22:06:33.380Z,73.60
2022-10-08T22:09:00.293Z,73.70
2022-10-08T22:11:27.128Z,73.80
2022-10-08T22:13:53.876Z,74.00
2022-10-08T22:16:21.548Z,74.10
2022-10-08T22:18:48.342Z,74.10
2022-10-08T22:21:16.876Z,74.10
2022-10-08T22:23:43.652Z,74.10
2022-10-08T22:26:12.041Z,74.10
2022-10-08T22:28:38.994Z,74.20
2022-10-08T22:31:06.849Z,74.30
2022-10-08T22:33:33.673Z,74.40
2022-10-08T22:36:21.750Z,74.50
2022-10-08T22:38:48.672Z,74.50
2022-10-08T22:41:26.057Z,74.50
2022-10-08T22:43:52.919Z,74.50
2022-10-08T22:46:30.495Z,74.50
2022-10-08T22:49:01.771Z,74.60
2022-10-08T22:51:28.651Z,74.60
2022-10-08T22:53:55.682Z,74.80
2022-10-08T22:56:24.876Z,74.80
2022-10-08T22:58:51.798Z,74.80
2022-10-08T23:01:20.752Z,74.90
2022-10-08T23:03:47.671Z,74.80
2022-10-08T23:06:18.410Z,74.90
2022-10-08T23:08:45.694Z,75.00
2022-10-08T23:11:12.754Z,75.10
2022-10-08T23:13:39.681Z,75.10
2022-10-08T23:16:09.350Z,75.10
2022-10-08T23:18:37.663Z,75.20
2022-10-08T23:21:06.038Z,75.30
2022-10-08T23:23:32.891Z,75.50
2022-10-08T23:26:00.877Z,75.40
2022-10-08T23:28:29.616Z,75.30
2022-10-08T23:31:10.128Z,75.10
2022-10-08T23:33:38.214Z,75.20
2022-10-08T23:36:06.200Z,75.30
2022-10-08T23:38:33.767Z,75.30
2022-10-08T23:41:01.275Z,75.60
2022-10-08T23:43:28.698Z,75.60
2022-10-08T23:45:56.221Z,75.30
2022-10-08T23:48:23.001Z,75.30
2022-10-08T23:50:51.106Z,75.40
2022-10-08T23:53:18.537Z,75.40
2022-10-08T23:55:45.246Z,75.50
2022-10-08T23:58:12.013Z,75.60
